createdAt,value
2022-07-27T00:01:10.236Z,1.73
2022-07-27T00:03:37.702Z,1.85
2022-07-27T00:06:04.776Z,2.00
2022-07-27T00:08:31.709Z,1.90
2022-07-27T00:10:58.644Z,1.90
2022-07-27T00:13:26.073Z,1.85
2022-07-27T00:15:53.201Z,1.45
2022-07-27T00:18:20.428Z,1.80
2022-07-27T00:20:47.401Z,1.73
2022-07-27T00:23:14.734Z,1.63
2022-07-27T00:25:41.654Z,1.50
2022-07-27T00:28:08.527Z,1.52
2022-07-27T00:30:35.364Z,1.60
2022-07-27T00:33:02.286Z,1.83
2022-07-27T00:35:29.438Z,1.83
2022-07-27T00:37:56.281Z,2.00
2022-07-27T00:40:25.588Z,1.60
2022-07-27T00:42:52.500Z,1.60
2022-07-27T00:45:19.610Z,1.65
2022-07-27T00:47:46.514Z,1.58
2022-07-27T00:50:13.697Z,2.03
2022-07-27T00:52:42.562Z,2.38
2022-07-27T00:55:09.819Z,1.88
2022-07-27T00:57:58.717Z,2.03
2022-07-27T01:00:24.297Z,1.60
2022-07-27T01:02:51.872Z,1.63
2022-07-27T01:05:19.223Z,1.60
2022-07-27T01:07:51.807Z,1.58
2022-07-27T01:10:19.038Z,1.90
2022-07-27T01:12:46.486Z,1.98
2022-07-27T01:15:13.800Z,1.70
2022-07-27T01:17:40.693Z,1.67
2022-07-27T01:20:08.463Z,1.75
2022-07-27T01:22:35.583Z,1.80
2022-07-27T01:25:03.093Z,2.20
2022-07-27T01:27:29.939Z,1.70
2022-07-27T01:29:57.074Z,1.67
2022-07-27T01:32:23.931Z,1.52
2022-07-27T01:34:50.842Z,1.60
2022-07-27T01:37:17.769Z,1.95
2022-07-27T01:39:44.631Z,1.80
2022-07-27T01:42:11.524Z,1.52
2022-07-27T01:44:38.373Z,2.00
2022-07-27T01:47:14.176Z,2.10
2022-07-27T01:49:41.959Z,1.63
2022-07-27T01:52:08.800Z,1.55
2022-07-27T01:54:35.749Z,1.73
2022-07-27T01:57:02.622Z,1.50
2022-07-27T01:59:29.477Z,2.00
2022-07-27T02:01:56.370Z,1.60
2022-07-27T02:04:24.734Z,2.00
2022-07-27T02:06:51.630Z,1.65
2022-07-27T02:09:18.671Z,1.70
2022-07-27T02:12:03.828Z,1.50
2022-07-27T02:14:30.715Z,1.90
2022-07-27T02:16:58.099Z,2.05
2022-07-27T02:19:25.575Z,2.03
2022-07-27T02:21:52.455Z,2.03
2022-07-27T02:24:19.331Z,1.83
2022-07-27T02:26:46.323Z,2.10
2022-07-27T02:29:16.747Z,1.67
2022-07-27T02:31:43.624Z,1.60
2022-07-27T02:34:10.570Z,1.42
2022-07-27T02:36:37.548Z,1.85
2022-07-27T02:39:05.034Z,1.73
2022-07-27T02:41:31.947Z,1.95
2022-07-27T02:43:58.844Z,1.75
2022-07-27T02:46:25.741Z,1.70
2022-07-27T02:48:52.731Z,1.80
2022-07-27T02:51:19.933Z,1.63
2022-07-27T02:53:46.996Z,1.60
2022-07-27T02:56:13.854Z,2.10
2022-07-27T02:58:40.812Z,1.85
2022-07-27T03:01:07.914Z,1.88
2022-07-27T03:03:36.852Z,1.83
2022-07-27T03:06:06.447Z,1.83
2022-07-27T03:08:34.390Z,1.75
2022-07-27T03:11:01.865Z,1.90
2022-07-27T03:13:29.388Z,1.90
2022-07-27T03:15:57.207Z,1.95
2022-07-27T03:18:25.042Z,2.05
2022-07-27T03:20:51.985Z,1.85
2022-07-27T03:23:19.513Z,1.83
2022-07-27T03:25:46.502Z,1.58
2022-07-27T03:28:13.371Z,1.58
2022-07-27T03:30:40.358Z,1.83
2022-07-27T03:33:07.547Z,1.80
2022-07-27T03:35:34.640Z,1.63
2022-07-27T03:38:01.630Z,1.65
2022-07-27T03:40:32.918Z,1.70
2022-07-27T03:43:00.860Z,1.20
2022-07-27T03:45:28.356Z,1.75
2022-07-27T03:47:55.704Z,1.80
2022-07-27T03:50:23.043Z,1.65
2022-07-27T03:52:51.823Z,1.85
2022-07-27T03:55:20.875Z,1.60
2022-07-27T03:57:47.811Z,1.95
2022-07-27T04:00:15.844Z,2.15
2022-07-27T04:02:43.175Z,1.75
2022-07-27T04:05:10.672Z,1.63
2022-07-27T04:07:38.529Z,1.65
2022-07-27T04:10:06.400Z,1.60
2022-07-27T04:12:39.472Z,1.80
2022-07-27T04:15:07.760Z,1.77
2022-07-27T04:17:54.855Z,1.98
2022-07-27T04:20:21.584Z,1.88
2022-07-27T04:22:48.923Z,1.58
2022-07-27T04:25:15.824Z,1.52
2022-07-27T04:27:42.764Z,1.77
2022-07-27T04:30:10.384Z,1.95
2022-07-27T04:32:37.428Z,1.67
2022-07-27T04:35:06.172Z,1.38
2022-07-27T04:37:34.895Z,1.65
2022-07-27T04:40:02.201Z,1.55
2022-07-27T04:42:29.977Z,1.90
2022-07-27T04:44:57.336Z,1.52
2022-07-27T04:47:24.247Z,1.70
2022-07-27T04:49:51.342Z,1.83
2022-07-27T04:52:19.082Z,2.08
2022-07-27T04:54:54.735Z,1.60
2022-07-27T04:57:23.046Z,2.10
2022-07-27T04:59:50.165Z,1.90
2022-07-27T05:02:17.258Z,1.75
2022-07-27T05:04:47.391Z,1.48
2022-07-27T05:07:14.277Z,1.55
2022-07-27T05:09:41.709Z,1.58
2022-07-27T05:12:08.685Z,2.00
2022-07-27T05:14:35.914Z,1.70
2022-07-27T05:17:02.915Z,1.50
2022-07-27T05:19:40.126Z,1.67
2022-07-27T05:22:09.251Z,1.40
2022-07-27T05:24:36.492Z,1.42
2022-07-27T05:27:03.571Z,1.40
2022-07-27T05:29:30.511Z,1.60
2022-07-27T05:31:57.469Z,1.45
2022-07-27T05:34:24.607Z,1.58
2022-07-27T05:36:52.638Z,1.73
2022-07-27T05:39:19.939Z,1.60
2022-07-27T05:41:47.146Z,1.60
2022-07-27T05:44:16.843Z,1.55
2022-07-27T05:46:44.043Z,1.65
2022-07-27T05:49:12.440Z,1.98
2022-07-27T05:51:39.663Z,1.63
2022-07-27T05:54:06.840Z,1.90
2022-07-27T05:56:35.353Z,2.28
2022-07-27T05:59:06.670Z,1.70
2022-07-27T06:01:34.662Z,2.08
2022-07-27T06:04:01.652Z,2.33
2022-07-27T06:06:47.495Z,1.75
2022-07-27T06:09:15.019Z,1.80
2022-07-27T06:11:42.513Z,1.98
2022-07-27T06:14:09.849Z,2.38
2022-07-27T06:16:37.003Z,1.70
2022-07-27T06:19:03.940Z,1.60
2022-07-27T06:21:31.818Z,2.03
2022-07-27T06:23:58.684Z,1.85
2022-07-27T06:26:25.818Z,1.77
2022-07-27T06:28:58.590Z,2.13
2022-07-27T06:31:30.119Z,2.10
2022-07-27T06:34:03.884Z,2.17
2022-07-27T06:36:39.845Z,1.70
2022-07-27T06:39:06.769Z,1.55
2022-07-27T06:41:34.618Z,1.83
2022-07-27T06:44:01.598Z,1.73
2022-07-27T06:46:28.678Z,1.70
2022-07-27T06:48:56.730Z,2.22
2022-07-27T06:51:24.489Z,1.83
2022-07-27T06:53:54.445Z,1.52
2022-07-27T06:56:22.277Z,1.85
2022-07-27T06:58:49.797Z,1.50
2022-07-27T07:01:17.874Z,2.08
2022-07-27T07:03:44.959Z,1.90
2022-07-27T07:06:11.934Z,1.73
2022-07-27T07:08:38.807Z,2.08
2022-07-27T07:11:05.791Z,1.88
2022-07-27T07:13:37.216Z,2.00
2022-07-27T07:16:05.905Z,1.88
2022-07-27T07:18:33.075Z,1.48
2022-07-27T07:21:00.007Z,1.88
2022-07-27T07:23:26.853Z,1.88
2022-07-27T07:25:53.763Z,1.80
2022-07-27T07:28:22.213Z,1.90
2022-07-27T07:30:49.918Z,1.40
2022-07-27T07:33:17.088Z,1.83
2022-07-27T07:36:13.912Z,1.40
2022-07-27T07:38:31.209Z,1.08
2022-07-27T07:40:58.118Z,1.23
2022-07-27T07:43:25.003Z,1.35
2022-07-27T07:45:52.333Z,1.10
2022-07-27T07:48:21.731Z,1.20
2022-07-27T07:50:51.506Z,1.25
2022-07-27T07:53:23.729Z,1.00
2022-07-27T07:55:52.753Z,1.40
2022-07-27T07:58:20.460Z,1.13
2022-07-27T08:00:47.888Z,1.05
2022-07-27T08:03:15.552Z,1.30
2022-07-27T08:05:42.583Z,1.17
2022-07-27T08:08:10.012Z,1.00
2022-07-27T08:10:36.936Z,0.98
2022-07-27T08:13:04.559Z,1.10
2022-07-27T08:15:35.127Z,1.20
2022-07-27T08:18:05.036Z,1.00
2022-07-27T08:20:32.438Z,0.85
2022-07-27T08:22:59.314Z,1.27
2022-07-27T08:25:26.196Z,1.20
2022-07-27T08:27:53.271Z,0.90
2022-07-27T08:30:23.663Z,0.98
2022-07-27T08:32:55.265Z,0.68
2022-07-27T08:35:22.786Z,0.80
2022-07-27T08:37:50.626Z,1.00
2022-07-27T08:43:06.818Z,0.80
2022-07-27T08:45:35.076Z,0.65
2022-07-27T08:48:03.125Z,0.60
2022-07-27T08:50:30.862Z,0.60
2022-07-27T08:53:16.852Z,0.80
2022-07-27T08:55:47.674Z,0.80
2022-07-27T08:58:16.118Z,0.70
2022-07-27T09:00:46.858Z,0.93
2022-07-27T09:03:19.987Z,0.80
2022-07-27T09:05:56.079Z,0.90
2022-07-27T09:08:31.008Z,0.88
2022-07-27T09:11:00.169Z,0.65
2022-07-27T09:13:33.374Z,0.60
2022-07-27T09:16:22.457Z,0.60
2022-07-27T09:18:58.813Z,1.35
2022-07-27T09:21:25.883Z,0.73
2022-07-27T09:23:59.485Z,0.90
2022-07-27T09:26:33.591Z,0.85
2022-07-27T09:29:07.464Z,0.80
2022-07-27T09:31:47.381Z,1.08
2022-07-27T09:34:33.313Z,1.10
2022-07-27T09:37:05.739Z,1.10
2022-07-27T09:39:33.274Z,0.75
2022-07-27T09:42:02.522Z,0.70
2022-07-27T09:44:53.436Z,0.93
2022-07-27T09:47:29.443Z,0.90
2022-07-27T09:50:15.455Z,0.88
2022-07-27T09:52:42.584Z,0.85
2022-07-27T09:55:10.388Z,0.70
2022-07-27T09:57:56.019Z,0.90
2022-07-27T10:00:23.769Z,0.95
2022-07-27T10:02:52.903Z,0.77
2022-07-27T10:05:24.235Z,0.70
2022-07-27T10:07:55.467Z,0.70
2022-07-27T10:10:23.834Z,0.50
2022-07-27T10:12:55.247Z,0.70
2022-07-27T10:15:24.954Z,0.55
2022-07-27T10:18:08.543Z,0.63
2022-07-27T10:20:42.201Z,0.90
2022-07-27T10:23:29.465Z,0.63
2022-07-27T10:26:17.851Z,0.65
2022-07-27T10:29:00.691Z,0.73
2022-07-27T10:31:34.388Z,0.65
2022-07-27T10:34:05.982Z,0.80
2022-07-27T10:36:32.740Z,0.60
2022-07-27T10:39:04.409Z,0.60
2022-07-27T10:41:41.333Z,0.50
2022-07-27T10:44:17.696Z,0.70
2022-07-27T10:47:12.421Z,0.70
2022-07-27T10:49:40.543Z,0.60
2022-07-27T10:52:45.823Z,0.50
2022-07-27T10:55:36.842Z,0.70
2022-07-27T10:58:03.604Z,0.40
2022-07-27T11:00:53.518Z,0.60
2022-07-27T11:03:27.175Z,0.88
2022-07-27T11:06:32.978Z,1.05
2022-07-27T11:11:50.009Z,0.50
2022-07-27T11:14:18.922Z,0.82
2022-07-27T11:16:55.836Z,0.77
2022-07-27T11:19:24.080Z,0.80
2022-07-27T11:21:52.504Z,0.60
2022-07-27T11:24:19.505Z,0.60
2022-07-27T11:26:50.408Z,0.98
2022-07-27T11:29:21.698Z,0.80
2022-07-27T11:31:56.047Z,0.68
2022-07-27T11:34:33.838Z,0.60
2022-07-27T11:37:03.409Z,0.50
2022-07-27T11:42:23.639Z,0.68
2022-07-27T11:44:54.930Z,0.68
2022-07-27T11:47:24.236Z,0.40
2022-07-27T11:49:52.136Z,0.70
2022-07-27T11:52:19.504Z,0.40
2022-07-27T11:54:52.775Z,0.60
2022-07-27T11:57:20.723Z,0.57
2022-07-27T11:59:48.647Z,0.68
2022-07-27T12:02:20.182Z,0.70
2022-07-27T12:04:50.338Z,0.70
2022-07-27T12:07:30.394Z,0.60
2022-07-27T12:10:04.823Z,0.70
2022-07-27T12:12:34.462Z,0.60
2022-07-27T12:15:45.873Z,0.82
2022-07-27T12:18:07.067Z,0.63
2022-07-27T12:20:36.454Z,0.77
2022-07-27T12:23:08.888Z,0.50
2022-07-27T12:25:36.412Z,0.77
2022-07-27T12:28:14.335Z,0.88
2022-07-27T12:30:47.189Z,0.60
2022-07-27T12:33:35.292Z,0.90
2022-07-27T12:36:06.006Z,0.70
2022-07-27T12:38:46.032Z,1.00
2022-07-27T12:41:29.634Z,0.65
2022-07-27T12:44:16.923Z,0.50
2022-07-27T12:47:02.004Z,0.70
2022-07-27T12:49:36.035Z,0.65
2022-07-27T12:52:09.642Z,0.70
2022-07-27T12:54:38.258Z,0.80
2022-07-27T12:57:13.053Z,0.60
2022-07-27T12:59:42.246Z,0.70
2022-07-27T13:02:09.221Z,0.68
2022-07-27T13:04:36.076Z,0.73
2022-07-27T13:07:03.132Z,0.80
2022-07-27T13:10:02.133Z,0.70
2022-07-27T13:12:18.003Z,0.68
2022-07-27T13:14:44.878Z,0.80
2022-07-27T13:17:11.775Z,0.82
2022-07-27T13:19:38.647Z,0.63
2022-07-27T13:22:06.247Z,0.40
2022-07-27T13:24:33.223Z,0.80
2022-07-27T13:27:00.567Z,0.52
2022-07-27T13:29:28.197Z,0.90
2022-07-27T13:32:15.533Z,0.82
2022-07-27T13:34:45.415Z,0.57
2022-07-27T13:37:12.316Z,0.70
2022-07-27T13:39:39.322Z,0.75
2022-07-27T13:42:06.347Z,0.70
2022-07-27T13:45:00.919Z,0.60
2022-07-27T13:47:20.225Z,0.65
2022-07-27T13:49:47.340Z,0.77
2022-07-27T13:52:15.190Z,1.00
2022-07-27T13:54:42.327Z,0.60
2022-07-27T13:57:09.420Z,0.70
2022-07-27T13:59:36.338Z,0.75
2022-07-27T14:02:03.656Z,0.70
2022-07-27T14:04:30.622Z,0.60
2022-07-27T14:06:58.896Z,0.65
2022-07-27T14:09:45.790Z,0.75
2022-07-27T14:12:13.062Z,0.70
2022-07-27T14:14:40.044Z,0.50
2022-07-27T14:17:07.347Z,0.50
2022-07-27T14:19:36.807Z,0.60
2022-07-27T14:22:04.370Z,0.75
2022-07-27T14:24:34.828Z,0.68
2022-07-27T14:27:06.651Z,0.70
2022-07-27T14:29:36.351Z,0.80
2022-07-27T14:32:03.507Z,0.63
2022-07-27T14:34:30.375Z,0.82
2022-07-27T14:36:57.320Z,0.60
2022-07-27T14:39:24.415Z,0.65
2022-07-27T14:41:51.308Z,0.60
2022-07-27T14:44:21.048Z,0.95
2022-07-27T14:46:47.976Z,0.70
2022-07-27T14:49:15.003Z,0.77
2022-07-27T14:51:41.977Z,0.70
2022-07-27T14:54:09.248Z,0.50
2022-07-27T14:56:36.728Z,0.60
2022-07-27T14:59:04.525Z,0.60
2022-07-27T15:01:31.936Z,0.60
2022-07-27T15:03:59.046Z,0.77
2022-07-27T15:06:25.991Z,0.50
2022-07-27T15:08:52.927Z,0.80
2022-07-27T15:11:20.253Z,0.82
2022-07-27T15:13:47.243Z,0.68
2022-07-27T15:16:14.371Z,0.60
2022-07-27T15:18:41.848Z,0.70
2022-07-27T15:21:13.441Z,0.80
2022-07-27T15:23:43.373Z,0.47
2022-07-27T15:26:12.498Z,0.60
2022-07-27T15:28:40.664Z,0.80
2022-07-27T15:31:07.788Z,0.60
2022-07-27T15:33:35.032Z,0.70
2022-07-27T15:36:02.110Z,0.68
2022-07-27T15:38:29.122Z,0.95
2022-07-27T15:40:56.037Z,0.60
2022-07-27T15:43:23.077Z,0.57
2022-07-27T15:45:51.522Z,0.90
2022-07-27T15:48:20.722Z,0.63
2022-07-27T15:50:51.676Z,0.50
2022-07-27T15:53:20.933Z,0.50
2022-07-27T15:55:49.340Z,0.82
2022-07-27T15:58:19.514Z,0.47
2022-07-27T16:00:56.128Z,0.50
2022-07-27T16:03:25.689Z,0.45
2022-07-27T16:05:54.636Z,0.90
2022-07-27T16:08:22.067Z,0.68
2022-07-27T16:10:49.431Z,0.52
2022-07-27T16:13:17.295Z,0.57
2022-07-27T16:16:03.583Z,0.47
2022-07-27T16:18:35.321Z,0.50
2022-07-27T16:21:07.517Z,0.60
2022-07-27T16:23:34.619Z,0.70
2022-07-27T16:26:04.627Z,0.65
2022-07-27T16:28:36.728Z,0.70
2022-07-27T16:31:05.671Z,0.88
2022-07-27T16:33:32.845Z,0.90
2022-07-27T16:35:59.984Z,0.90
2022-07-27T16:38:28.185Z,0.60
2022-07-27T16:40:55.140Z,0.60
2022-07-27T16:43:22.174Z,0.90
2022-07-27T16:45:52.099Z,0.73
2022-07-27T16:48:19.539Z,0.80
2022-07-27T16:50:46.437Z,4.15
2022-07-27T16:53:13.303Z,3.15
2022-07-27T16:55:40.184Z,2.17
2022-07-27T16:58:07.199Z,1.20
2022-07-27T17:00:38.634Z,0.90
2022-07-27T17:03:06.366Z,0.80
2022-07-27T17:05:33.716Z,0.80
2022-07-27T17:08:00.731Z,0.88
2022-07-27T17:10:27.783Z,1.08
2022-07-27T17:12:57.707Z,0.90
2022-07-27T17:15:25.078Z,1.02
2022-07-27T17:17:52.428Z,0.68
2022-07-27T17:20:31.521Z,0.70
2022-07-27T17:23:05.895Z,0.60
2022-07-27T17:27:59.688Z,0.47
2022-07-27T17:30:26.585Z,0.50
2022-07-27T17:32:54.081Z,0.70
2022-07-27T17:35:21.143Z,1.10
2022-07-27T17:38:07.712Z,0.90
2022-07-27T17:40:35.898Z,1.02
2022-07-27T17:43:03.074Z,0.80
2022-07-27T17:45:30.100Z,0.70
2022-07-27T17:47:57.175Z,0.60
2022-07-27T17:50:24.096Z,0.77
2022-07-27T17:52:51.093Z,0.45
2022-07-27T17:55:18.044Z,0.80
2022-07-27T17:57:45.389Z,0.80
2022-07-27T18:02:54.978Z,0.82
2022-07-27T18:05:22.080Z,0.75
2022-07-27T18:07:51.891Z,0.70
2022-07-27T18:10:19.182Z,0.70
2022-07-27T18:12:46.133Z,0.63
2022-07-27T18:15:31.597Z,0.82
2022-07-27T18:17:58.570Z,0.80
2022-07-27T18:20:25.638Z,0.77
2022-07-27T18:22:52.594Z,0.95
2022-07-27T18:25:19.598Z,0.80
2022-07-27T18:27:50.134Z,0.80
2022-07-27T18:30:18.302Z,0.77
2022-07-27T18:32:45.626Z,1.10
2022-07-27T18:35:13.357Z,0.82
2022-07-27T18:37:41.013Z,0.90
2022-07-27T18:40:09.303Z,0.70
2022-07-27T18:42:38.304Z,0.77
2022-07-27T18:45:08.423Z,0.85
2022-07-27T18:47:36.837Z,0.85
2022-07-27T18:50:06.445Z,0.77
2022-07-27T18:52:33.719Z,1.10
2022-07-27T18:55:01.097Z,0.82
2022-07-27T18:57:29.017Z,0.82
2022-07-27T18:59:56.018Z,0.95
2022-07-27T19:02:23.700Z,0.80
2022-07-27T19:04:50.746Z,0.80
2022-07-27T19:07:18.085Z,0.80
2022-07-27T19:09:47.367Z,0.87
2022-07-27T19:12:14.780Z,1.00
2022-07-27T19:14:41.986Z,0.95
2022-07-27T19:17:10.861Z,1.35
2022-07-27T19:19:42.016Z,0.93
2022-07-27T19:22:08.913Z,0.98
2022-07-27T19:24:35.860Z,1.17
2022-07-27T19:27:03.097Z,1.20
2022-07-27T19:29:30.119Z,1.15
2022-07-27T19:31:57.041Z,1.27
2022-07-27T19:34:24.242Z,1.52
2022-07-27T19:36:51.190Z,1.25
2022-07-27T19:39:18.202Z,1.77
2022-07-27T19:41:45.185Z,1.40
2022-07-27T19:44:12.117Z,2.05
2022-07-27T19:46:39.190Z,2.00
2022-07-27T19:49:06.216Z,1.83
2022-07-27T19:51:33.365Z,1.48
2022-07-27T19:54:00.416Z,1.80
2022-07-27T19:56:27.416Z,1.48
2022-07-27T19:58:54.394Z,1.88
2022-07-27T20:01:21.704Z,1.85
2022-07-27T20:03:54.615Z,1.98
2022-07-27T20:06:24.131Z,1.70
2022-07-27T20:08:53.852Z,1.88
2022-07-27T20:11:20.766Z,1.80
2022-07-27T20:13:47.679Z,2.03
2022-07-27T20:16:15.458Z,2.00
2022-07-27T20:18:42.354Z,2.25
2022-07-27T20:21:24.876Z,2.20
2022-07-27T20:24:13.939Z,2.30
2022-07-27T20:26:42.545Z,1.80
2022-07-27T20:29:12.889Z,2.17
2022-07-27T20:31:45.258Z,2.15
2022-07-27T20:34:12.218Z,1.90
2022-07-27T20:36:39.079Z,1.95
2022-07-27T20:39:07.578Z,1.95
2022-07-27T20:41:35.496Z,2.05
2022-07-27T20:44:02.756Z,2.15
2022-07-27T20:46:29.908Z,1.90
2022-07-27T20:48:57.393Z,1.90
2022-07-27T20:51:24.304Z,1.85
2022-07-27T20:53:52.908Z,1.98
2022-07-27T20:56:19.840Z,1.92
2022-07-27T20:58:48.145Z,2.28
2022-07-27T21:01:15.297Z,1.92
2022-07-27T21:03:42.216Z,2.13
2022-07-27T21:06:09.863Z,1.90
2022-07-27T21:08:36.899Z,2.13
2022-07-27T21:11:06.083Z,1.98
2022-07-27T21:13:32.957Z,2.00
2022-07-27T21:15:59.875Z,1.83
2022-07-27T21:18:26.806Z,2.13
2022-07-27T21:20:53.829Z,2.55
2022-07-27T21:23:55.787Z,2.10
2022-07-27T21:26:23.187Z,1.90
2022-07-27T21:28:50.159Z,1.90
2022-07-27T21:31:17.558Z,1.98
2022-07-27T21:33:44.505Z,2.13
2022-07-27T21:36:11.382Z,2.40
2022-07-27T21:38:45.545Z,1.80
2022-07-27T21:41:14.378Z,2.65
2022-07-27T21:43:41.414Z,2.05
2022-07-27T21:46:08.302Z,2.08
2022-07-27T21:48:35.249Z,2.28
2022-07-27T21:51:02.272Z,1.73
2022-07-27T21:53:29.150Z,1.95
2022-07-27T21:55:55.993Z,1.95
2022-07-27T21:58:22.857Z,1.83
2022-07-27T22:00:49.889Z,2.00
2022-07-27T22:03:17.374Z,2.28
2022-07-27T22:05:44.250Z,2.25
2022-07-27T22:08:11.092Z,2.17
2022-07-27T22:10:38.705Z,1.88
2022-07-27T22:13:05.607Z,2.58
2022-07-27T22:15:32.516Z,2.67
2022-07-27T22:17:59.609Z,1.90
2022-07-27T22:20:26.579Z,1.90
2022-07-27T22:22:53.448Z,1.90
2022-07-27T22:25:20.508Z,1.90
2022-07-27T22:27:47.415Z,2.22
2022-07-27T22:30:15.310Z,2.53
2022-07-27T22:32:42.253Z,2.05
2022-07-27T22:35:10.426Z,2.30
2022-07-27T22:37:37.337Z,1.95
2022-07-27T22:40:05.118Z,2.08
2022-07-27T22:42:32.500Z,1.75
2022-07-27T22:44:59.936Z,2.15
2022-07-27T22:47:26.809Z,2.00
2022-07-27T22:49:53.637Z,2.10
2022-07-27T22:52:20.492Z,1.70
2022-07-27T22:54:47.802Z,2.63
2022-07-27T22:57:14.959Z,2.05
2022-07-27T22:59:42.282Z,1.90
2022-07-27T23:02:09.361Z,2.22
2022-07-27T23:04:36.454Z,2.00
2022-07-27T23:07:03.344Z,1.95
2022-07-27T23:09:30.208Z,2.15
2022-07-27T23:11:57.073Z,2.35
2022-07-27T23:14:25.909Z,1.90
2022-07-27T23:16:53.296Z,2.30
2022-07-27T23:19:20.232Z,2.55
2022-07-27T23:21:47.157Z,2.28
2022-07-27T23:24:15.648Z,2.20
2022-07-27T23:26:43.276Z,2.15
2022-07-27T23:29:10.198Z,2.00
2022-07-27T23:31:37.192Z,2.17
2022-07-27T23:34:04.192Z,2.40
2022-07-27T23:36:31.288Z,1.95
2022-07-27T23:38:58.200Z,1.92
2022-07-27T23:41:25.115Z,2.22
2022-07-27T23:43:51.957Z,2.58
2022-07-27T23:46:19.061Z,2.40
2022-07-27T23:48:46.056Z,2.22
2022-07-27T23:51:20.640Z,1.98
2022-07-27T23:53:48.290Z,2.17
2022-07-27T23:56:15.974Z,2.17
2022-07-27T23:58:45.879Z,2.70
